Time;durP1;ratioP1;P1;durP2;ratioP2;P2;SDS_P1;SDS_P2;PMS_P1;PMS_P2;Temp;Humidity;BMP_temperature;BMP_pressure;BME280_temperature;BME280_humidity;BME280_pressure;Samples;Min_cycle;Max_cycle;Signal;HPM_P1;HPM_P2
2022/04/25 00:02:17;;;;;;;14.20;12.50;;;7.30;99.90;;;;;;5093613;28;20440;-76
2022/04/25 00:05:04;;;;;;;13.60;11.67;;;7.30;99.90;;;;;;5086201;28;20440;-78
2022/04/25 00:07:49;;;;;;;15.80;13.63;;;7.40;99.90;;;;;;5091480;28;20458;-78
2022/04/25 00:10:35;;;;;;;17.53;14.50;;;7.30;99.90;;;;;;5090989;28;20544;-78
2022/04/25 00:13:22;;;;;;;16.50;13.90;;;7.30;99.90;;;;;;5087436;28;20464;-78
2022/04/25 00:16:08;;;;;;;19.83;15.70;;;7.30;99.90;;;;;;5093375;28;20443;-78
2022/04/25 00:18:53;;;;;;;17.47;14.67;;;7.30;99.90;;;;;;5093101;28;20561;-77
2022/04/25 00:21:38;;;;;;;17.20;14.70;;;7.30;99.90;;;;;;5091358;28;20808;-78
2022/04/25 00:24:24;;;;;;;15.93;14.23;;;7.40;99.90;;;;;;5092900;28;20473;-77
2022/04/25 00:27:11;;;;;;;16.13;14.40;;;7.50;99.90;;;;;;5092770;28;20472;-78
2022/04/25 00:29:58;;;;;;;15.83;14.20;;;7.60;99.90;;;;;;5093541;28;21101;-76
2022/04/25 00:32:44;;;;;;;17.43;14.63;;;7.60;99.90;;;;;;5091047;28;20464;-78
2022/04/25 00:35:29;;;;;;;17.93;14.03;;;7.60;99.90;;;;;;5092101;28;20437;-78
2022/04/25 00:38:15;;;;;;;17.00;14.37;;;7.50;99.90;;;;;;5091071;28;20441;-77
2022/04/25 00:41:01;;;;;;;17.00;13.67;;;7.50;99.90;;;;;;5092211;28;20961;-76
2022/04/25 00:43:47;;;;;;;17.00;14.53;;;7.40;99.90;;;;;;5086903;28;20442;-76
2022/04/25 00:46:37;;;;;;;15.23;13.60;;;7.30;99.90;;;;;;5091057;28;20431;-78
2022/04/25 00:49:24;;;;;;;18.13;15.20;;;7.30;99.90;;;;;;5093554;28;20421;-76
2022/04/25 00:52:09;;;;;;;17.20;14.90;;;7.20;99.90;;;;;;5092155;28;20893;-76
2022/04/25 00:54:55;;;;;;;16.73;14.97;;;7.20;99.90;;;;;;5093902;28;20421;-78
2022/04/25 00:57:41;;;;;;;19.10;15.57;;;7.20;99.90;;;;;;5092075;28;20421;-78
2022/04/25 01:00:26;;;;;;;19.50;14.50;;;7.10;99.90;;;;;;5085980;28;20508;-77
2022/04/25 01:03:14;;;;;;;17.00;14.00;;;7.20;99.90;;;;;;5086851;28;21036;-78
2022/04/25 01:05:59;;;;;;;17.10;15.30;;;7.30;99.90;;;;;;5088092;28;20826;-76
2022/04/25 01:08:45;;;;;;;18.17;14.23;;;7.40;99.90;;;;;;5090568;28;20495;-78
2022/04/25 01:11:31;;;;;;;20.07;15.90;;;7.40;99.90;;;;;;5087650;28;22004;-76
2022/04/25 01:14:19;;;;;;;18.10;15.77;;;7.50;99.90;;;;;;5091672;28;20496;-78
2022/04/25 01:17:05;;;;;;;22.73;16.00;;;7.50;99.90;;;;;;5092834;28;20419;-78
2022/04/25 01:19:52;;;;;;;20.40;16.10;;;7.60;99.90;;;;;;5092378;28;20508;-78
2022/04/25 01:22:42;;;;;;;23.67;17.70;;;7.50;99.90;;;;;;5083552;28;20471;-74
2022/04/25 01:28:32;;;;;;;25.30;17.43;;;7.50;99.90;;;;;;5089121;28;20443;-77
2022/04/25 01:31:18;;;;;;;51.33;18.00;;;7.50;99.90;;;;;;5086433;28;20435;-75
2022/04/25 01:34:04;;;;;;;48.53;19.80;;;7.30;99.90;;;;;;5090958;28;20439;-78
2022/04/25 01:36:50;;;;;;;28.47;18.53;;;7.20;99.90;;;;;;5093465;28;20437;-77
2022/04/25 01:39:36;;;;;;;30.37;19.03;;;7.10;99.90;;;;;;5088414;28;20496;-76
2022/04/25 01:42:24;;;;;;;28.90;20.17;;;7.00;99.90;;;;;;5088108;28;20433;-78
2022/04/25 01:45:10;;;;;;;25.10;18.33;;;7.10;99.90;;;;;;5092004;28;20493;-77
2022/04/25 01:47:56;;;;;;;28.17;19.70;;;7.30;99.90;;;;;;5092343;28;20444;-77
2022/04/25 01:50:42;;;;;;;22.17;18.17;;;7.40;99.90;;;;;;5086891;28;20961;-77
2022/04/25 01:53:29;;;;;;;24.03;17.87;;;7.40;99.90;;;;;;5086907;28;21044;-77
2022/04/25 01:56:15;;;;;;;24.90;17.47;;;7.50;99.90;;;;;;5087869;28;20412;-78
2022/04/25 01:59:02;;;;;;;25.43;19.70;;;7.60;99.90;;;;;;5090527;28;20815;-77
2022/04/25 02:01:48;;;;;;;32.43;19.50;;;7.50;99.90;;;;;;5084060;28;20486;-77
2022/04/25 02:04:34;;;;;;;25.97;18.87;;;7.40;99.90;;;;;;5091433;28;20501;-77
2022/04/25 02:07:20;;;;;;;24.33;19.80;;;7.20;99.90;;;;;;5090439;28;20776;-77
2022/04/25 02:10:07;;;;;;;22.00;17.90;;;7.00;99.90;;;;;;5089115;28;20429;-77
2022/04/25 02:12:52;;;;;;;22.23;19.03;;;7.10;99.90;;;;;;5085973;28;20993;-76
2022/04/25 02:15:39;;;;;;;22.97;17.93;;;7.10;99.90;;;;;;5091188;28;20461;-76
2022/04/25 02:18:25;;;;;;;31.83;19.17;;;7.10;99.90;;;;;;5092573;28;20485;-78
2022/04/25 02:21:10;;;;;;;23.60;17.83;;;7.10;99.90;;;;;;5087614;28;20468;-77
2022/04/25 02:23:56;;;;;;;21.60;17.90;;;7.10;99.90;;;;;;5090506;28;20473;-76
2022/04/25 02:26:42;;;;;;;20.70;17.00;;;7.10;99.90;;;;;;5089543;28;20418;-77
2022/04/25 02:29:28;;;;;;;22.00;17.67;;;7.00;99.90;;;;;;5090565;28;20799;-77
2022/04/25 02:32:16;;;;;;;23.63;19.50;;;6.90;99.90;;;;;;5084671;28;20497;-78
2022/04/25 02:35:01;;;;;;;30.23;18.00;;;6.90;99.90;;;;;;5090740;28;20429;-78
2022/04/25 02:37:47;;;;;;;21.93;16.90;;;7.00;99.90;;;;;;5091473;28;20426;-77
2022/04/25 02:40:33;;;;;;;28.97;18.70;;;6.90;99.90;;;;;;5085218;28;20476;-77
2022/04/25 02:43:18;;;;;;;29.10;18.70;;;6.90;99.90;;;;;;5091405;28;20493;-78
2022/04/25 02:46:05;;;;;;;67.23;18.83;;;6.80;99.90;;;;;;5091014;28;20452;-78
2022/04/25 02:48:52;;;;;;;37.13;21.73;;;6.60;99.90;;;;;;5092362;28;20454;-78
2022/04/25 02:51:38;;;;;;;64.60;20.93;;;6.40;99.90;;;;;;5079756;28;20970;-78
2022/04/25 02:54:24;;;;;;;27.20;20.83;;;6.30;99.90;;;;;;5085230;28;20433;-78
2022/04/25 02:57:10;;;;;;;23.47;17.90;;;6.50;99.90;;;;;;5091268;28;20462;-76
2022/04/25 02:59:56;;;;;;;23.83;18.77;;;6.70;99.90;;;;;;5089333;28;21024;-78
2022/04/25 03:02:42;;;;;;;38.17;19.30;;;6.80;99.90;;;;;;5090396;28;20596;-78
2022/04/25 03:05:29;;;;;;;30.43;19.17;;;6.70;99.90;;;;;;5089322;28;20446;-78
2022/04/25 03:08:16;;;;;;;70.27;20.20;;;6.70;99.90;;;;;;5089148;28;21001;-78
2022/04/25 03:11:05;;;;;;;21.33;17.53;;;6.50;99.90;;;;;;5086840;28;20470;-77
2022/04/25 03:13:52;;;;;;;20.63;17.03;;;6.50;99.90;;;;;;5087319;28;20439;-77
2022/04/25 03:16:38;;;;;;;21.03;17.40;;;6.40;99.90;;;;;;5086499;28;20836;-76
2022/04/25 03:19:24;;;;;;;20.13;16.73;;;6.40;99.90;;;;;;5087638;28;20508;-76
2022/04/25 03:22:11;;;;;;;22.67;17.70;;;6.50;99.90;;;;;;5090244;28;20490;-78
2022/04/25 03:24:57;;;;;;;23.80;18.20;;;6.60;99.90;;;;;;5088643;28;20447;-78
2022/04/25 03:27:42;;;;;;;24.80;18.87;;;6.80;99.90;;;;;;5091660;28;20414;-77
2022/04/25 03:30:28;;;;;;;31.13;19.90;;;6.80;99.90;;;;;;5085868;28;20471;-78
2022/04/25 03:33:15;;;;;;;26.07;16.90;;;6.90;99.90;;;;;;5091553;28;20933;-78
2022/04/25 03:36:01;;;;;;;53.07;16.67;;;6.90;99.90;;;;;;5090418;28;20520;-76
2022/04/25 03:38:52;;;;;;;21.20;17.10;;;6.80;99.90;;;;;;5084798;28;20450;-75
2022/04/25 03:41:37;;;;;;;27.40;17.47;;;6.80;99.90;;;;;;5088418;28;20444;-78
2022/04/25 03:44:23;;;;;;;45.60;17.57;;;6.80;99.90;;;;;;5090223;28;20528;-74
2022/04/25 03:47:08;;;;;;;26.90;16.80;;;6.80;99.90;;;;;;5089213;28;20437;-78
2022/04/25 03:49:54;;;;;;;56.97;18.57;;;6.70;99.90;;;;;;5083651;28;21199;-78
2022/04/25 03:52:42;;;;;;;56.87;16.93;;;6.50;99.90;;;;;;5090905;28;20417;-77
2022/04/25 03:58:32;;;;;;;32.57;18.43;;;6.50;99.90;;;;;;5089744;28;20446;-78
2022/04/25 04:01:18;;;;;;;22.70;18.47;;;6.50;99.90;;;;;;5082503;28;20469;-77
2022/04/25 04:04:04;;;;;;;24.70;18.30;;;6.50;99.90;;;;;;5088363;28;20994;-77
2022/04/25 04:06:50;;;;;;;29.67;16.97;;;6.50;99.90;;;;;;5090655;28;20413;-78
2022/04/25 04:09:47;;;;;;;29.20;16.07;;;6.50;99.90;;;;;;5087806;28;20526;-77
2022/04/25 04:12:35;;;;;;;17.80;15.70;;;6.30;99.90;;;;;;5088076;28;20411;-76
2022/04/25 04:15:20;;;;;;;19.50;16.50;;;6.20;99.90;;;;;;5093447;28;20421;-78
2022/04/25 04:18:06;;;;;;;18.93;15.83;;;6.30;99.90;;;;;;5092222;28;20497;-77
2022/04/25 04:20:52;;;;;;;17.67;15.50;;;6.30;99.90;;;;;;5086806;28;20439;-78
2022/04/25 04:23:38;;;;;;;16.10;14.37;;;6.50;99.90;;;;;;5091280;28;20455;-76
2022/04/25 04:26:24;;;;;;;19.20;16.80;;;6.50;99.90;;;;;;5092853;28;20510;-76
2022/04/25 04:29:11;;;;;;;17.33;14.83;;;6.60;99.90;;;;;;5090898;28;20647;-75
2022/04/25 04:31:58;;;;;;;17.80;14.57;;;6.60;99.90;;;;;;5091685;28;20454;-77
2022/04/25 04:34:44;;;;;;;15.07;13.27;;;6.70;99.90;;;;;;5094392;28;20421;-75
2022/04/25 04:37:33;;;;;;;15.33;13.77;;;6.60;99.90;;;;;;5091981;28;20459;-76
2022/04/25 04:40:30;;;;;;;16.37;13.70;;;6.50;99.90;;;;;;5089332;28;20445;-76
2022/04/25 04:43:16;;;;;;;19.93;14.07;;;6.30;99.90;;;;;;5093144;28;20524;-77
2022/04/25 04:46:03;;;;;;;20.47;16.07;;;6.10;99.90;;;;;;5093318;28;20446;-78
2022/04/25 04:48:48;;;;;;;19.73;15.37;;;6.20;99.90;;;;;;5090538;28;21072;-78
2022/04/25 04:51:34;;;;;;;22.10;17.03;;;6.20;99.90;;;;;;5090224;28;20449;-77
2022/04/25 04:54:19;;;;;;;24.17;17.33;;;6.20;99.90;;;;;;5090330;28;20458;-76
2022/04/25 04:57:05;;;;;;;20.73;16.93;;;6.20;99.90;;;;;;5092233;28;20916;-77
2022/04/25 04:59:50;;;;;;;24.23;18.30;;;6.30;99.90;;;;;;5089327;28;20438;-78
2022/04/25 05:02:38;;;;;;;19.90;17.03;;;6.40;99.90;;;;;;5090948;28;20428;-78
2022/04/25 05:05:25;;;;;;;20.67;17.20;;;6.40;99.90;;;;;;5091479;28;20441;-77
2022/04/25 05:08:10;;;;;;;26.70;17.40;;;6.50;99.90;;;;;;5087099;28;20454;-78
2022/04/25 05:10:55;;;;;;;23.93;16.77;;;6.50;99.90;;;;;;5083847;28;20563;-78
2022/04/25 05:13:41;;;;;;;22.03;16.87;;;6.40;99.90;;;;;;5088579;28;20476;-78
2022/04/25 05:16:27;;;;;;;21.40;17.30;;;6.40;99.90;;;;;;5088208;28;20443;-78
2022/04/25 05:19:14;;;;;;;25.60;18.00;;;6.60;99.90;;;;;;5090297;28;20444;-77
2022/04/25 05:22:00;;;;;;;44.87;14.67;;;6.60;99.90;;;;;;5089995;28;20449;-78
2022/04/25 05:24:45;;;;;;;16.30;14.27;;;6.70;99.90;;;;;;5091464;28;20469;-77
2022/04/25 05:27:32;;;;;;;73.10;18.43;;;6.80;99.90;;;;;;5091287;28;20449;-78
2022/04/25 05:30:19;;;;;;;82.03;15.50;;;6.80;99.90;;;;;;5083528;28;20454;-77
2022/04/25 05:33:05;;;;;;;24.60;15.27;;;6.80;99.90;;;;;;5087212;28;21046;-78
2022/04/25 05:35:52;;;;;;;23.53;13.87;;;6.80;99.90;;;;;;5086352;28;20485;-78
2022/04/25 05:38:38;;;;;;;28.23;16.03;;;6.80;99.90;;;;;;5090720;28;20607;-77
2022/04/25 05:41:24;;;;;;;28.00;15.30;;;6.90;99.90;;;;;;5088239;28;20606;-78
2022/04/25 05:44:10;;;;;;;47.50;13.87;;;6.90;99.90;;;;;;5087490;28;20447;-78
2022/04/25 05:46:56;;;;;;;20.97;14.70;;;7.00;99.90;;;;;;5088198;28;20585;-78
2022/04/25 05:52:47;;;;;;;21.57;16.40;;;7.00;99.90;;;;;;5091057;28;20418;-78
2022/04/25 05:55:32;;;;;;;18.07;14.43;;;7.00;99.90;;;;;;5089191;28;20919;-78
2022/04/25 05:58:18;;;;;;;16.37;14.37;;;7.10;99.90;;;;;;5090136;28;20505;-78
2022/04/25 06:01:04;;;;;;;20.27;15.30;;;7.10;99.90;;;;;;5087364;28;20965;-78
2022/04/25 06:03:49;;;;;;;17.70;15.70;;;7.10;99.90;;;;;;5091028;28;20967;-78
2022/04/25 06:06:35;;;;;;;17.13;14.33;;;7.10;99.90;;;;;;5090553;28;20549;-78
2022/04/25 06:09:25;;;;;;;17.97;15.27;;;7.20;99.90;;;;;;5085881;28;20479;-78
2022/04/25 06:12:11;;;;;;;21.20;16.13;;;7.30;99.90;;;;;;5088133;28;21088;-77
2022/04/25 06:14:57;;;;;;;16.73;14.93;;;7.40;99.90;;;;;;5083629;28;20933;-78
2022/04/25 06:17:43;;;;;;;17.10;15.30;;;7.50;99.90;;;;;;5085919;28;20443;-78
2022/04/25 06:20:30;;;;;;;17.70;14.40;;;7.60;99.90;;;;;;5084687;28;20445;-78
2022/04/25 06:23:16;;;;;;;20.00;16.27;;;7.70;99.90;;;;;;5089372;28;21114;-78
2022/04/25 06:26:03;;;;;;;30.43;16.33;;;7.70;99.90;;;;;;5085661;28;20509;-78
2022/04/25 06:28:49;;;;;;;22.73;18.43;;;7.80;99.90;;;;;;5087316;28;20622;-78
2022/04/25 06:31:35;;;;;;;20.20;16.63;;;7.90;99.90;;;;;;5087073;28;20470;-77
2022/04/25 06:34:20;;;;;;;21.43;17.77;;;8.00;99.90;;;;;;5089068;28;20485;-78
2022/04/25 06:37:06;;;;;;;19.00;16.30;;;8.10;99.90;;;;;;5090703;28;20415;-78
2022/04/25 06:39:52;;;;;;;21.27;17.30;;;8.30;99.90;;;;;;5081476;28;20430;-78
2022/04/25 06:42:39;;;;;;;21.87;18.53;;;8.40;99.90;;;;;;5089996;28;20556;-78
2022/04/25 06:45:24;;;;;;;19.57;17.47;;;8.60;99.90;;;;;;5090397;28;20418;-78
2022/04/25 06:48:10;;;;;;;18.73;16.73;;;8.60;99.90;;;;;;5088594;28;20446;-78
2022/04/25 06:50:56;;;;;;;17.80;15.17;;;8.70;99.90;;;;;;5086775;28;20475;-77
2022/04/25 06:53:42;;;;;;;17.60;15.40;;;8.70;99.90;;;;;;5090254;28;20447;-78
2022/04/25 06:56:27;;;;;;;19.00;17.00;;;8.80;99.90;;;;;;5090247;28;20540;-79
2022/04/25 06:59:14;;;;;;;19.80;17.73;;;8.80;99.90;;;;;;5084653;28;20929;-78
2022/04/25 07:02:00;;;;;;;18.63;16.53;;;8.90;99.90;;;;;;5080207;28;20444;-78
2022/04/25 07:04:46;;;;;;;18.80;16.80;;;9.00;99.90;;;;;;5072852;28;20472;-78
2022/04/25 07:07:32;;;;;;;20.07;17.57;;;9.20;99.90;;;;;;5087694;28;20610;-78
2022/04/25 07:10:18;;;;;;;21.20;15.20;;;9.20;99.90;;;;;;5086262;28;20452;-78
2022/04/25 07:13:04;;;;;;;18.00;15.83;;;9.40;99.90;;;;;;5072160;28;20747;-77
2022/04/25 07:15:51;;;;;;;18.77;16.83;;;9.40;99.90;;;;;;5092450;28;20869;-78
2022/04/25 07:18:37;;;;;;;18.23;16.33;;;9.40;99.90;;;;;;5084208;28;20431;-78
2022/04/25 07:30:34;;;;;;;21.60;18.77;;;9.50;99.90;;;;;;5087077;28;20477;-78
2022/04/25 07:33:21;;;;;;;20.97;18.07;;;9.70;99.90;;;;;;5088859;28;20496;-78
2022/04/25 07:36:07;;;;;;;23.67;19.37;;;10.00;99.90;;;;;;5087049;28;20422;-78
2022/04/25 07:38:54;;;;;;;20.07;17.97;;;10.20;99.90;;;;;;5082018;28;20460;-78
2022/04/25 07:41:42;;;;;;;24.80;18.23;;;10.40;99.90;;;;;;5089163;28;20480;-78
2022/04/25 07:44:28;;;;;;;19.53;17.40;;;10.50;99.90;;;;;;5086726;28;20988;-78
2022/04/25 07:47:13;;;;;;;21.53;19.23;;;10.70;99.90;;;;;;5089978;28;20423;-78
2022/04/25 07:50:01;;;;;;;23.40;17.37;;;10.90;99.90;;;;;;5091408;28;20479;-78
2022/04/25 07:52:47;;;;;;;22.07;18.00;;;11.00;99.90;;;;;;5093674;28;20448;-78
2022/04/25 07:55:32;;;;;;;18.43;16.37;;;11.20;99.90;;;;;;5091536;28;20529;-78
2022/04/25 07:58:18;;;;;;;24.70;18.03;;;11.30;99.90;;;;;;5089846;28;20583;-78
2022/04/25 08:01:04;;;;;;;16.97;15.17;;;11.40;99.90;;;;;;5093610;28;21009;-78
2022/04/25 08:03:49;;;;;;;16.90;14.63;;;11.60;99.90;;;;;;5093141;28;20444;-78
2022/04/25 08:06:36;;;;;;;20.87;16.77;;;11.80;99.90;;;;;;5105359;28;20429;-78
2022/04/25 08:09:22;;;;;;;16.33;14.57;;;11.90;99.90;;;;;;5094961;28;20798;-78
2022/04/25 08:18:16;;;;;;;13.73;12.17;;;12.10;99.90;;;;;;5096258;28;20570;-78
2022/04/25 08:21:01;;;;;;;14.37;11.90;;;12.30;99.90;;;;;;5101338;28;20460;-78
2022/04/25 08:23:48;;;;;;;14.40;12.20;;;12.50;99.90;;;;;;5099073;28;20591;-78
2022/04/25 08:26:34;;;;;;;14.77;10.47;;;12.50;99.90;;;;;;5102728;28;20519;-78
2022/04/25 08:29:20;;;;;;;10.20;8.80;;;12.70;99.90;;;;;;5097095;28;20485;-78
2022/04/25 08:32:07;;;;;;;13.27;10.33;;;12.80;99.90;;;;;;5096837;28;20432;-78
2022/04/25 08:34:53;;;;;;;10.40;7.90;;;12.90;99.90;;;;;;5093971;28;20582;-77
2022/04/25 08:37:39;;;;;;;11.27;8.40;;;13.00;99.90;;;;;;5086199;28;20546;-77
2022/04/25 08:40:26;;;;;;;11.57;9.60;;;13.10;99.90;;;;;;5091632;28;20433;-77
2022/04/25 08:43:13;;;;;;;9.47;8.50;;;13.20;99.90;;;;;;5091796;28;20678;-78
2022/04/25 08:46:00;;;;;;;12.07;8.30;;;13.40;99.90;;;;;;5088912;28;20415;-77
2022/04/25 08:48:46;;;;;;;8.33;7.53;;;13.60;99.90;;;;;;5086962;28;20434;-77
2022/04/25 08:51:37;;;;;;;8.83;6.83;;;13.80;99.90;;;;;;5089757;28;21175;-77
2022/04/25 08:54:23;;;;;;;9.60;7.57;;;13.90;97.50;;;;;;5090573;28;20438;-78
2022/04/25 08:57:11;;;;;;;15.13;7.50;;;13.90;99.90;;;;;;5086960;28;20856;-77
2022/04/25 08:59:59;;;;;;;9.10;7.00;;;14.10;99.90;;;;;;5089887;28;20793;-77
2022/04/25 09:02:47;;;;;;;6.60;5.90;;;14.10;97.40;;;;;;5090738;28;20424;-77
2022/04/25 09:05:33;;;;;;;7.23;6.27;;;14.10;93.10;;;;;;5089590;28;20525;-77
2022/04/25 09:08:19;;;;;;;9.40;6.20;;;14.10;93.90;;;;;;5086737;28;20469;-77
2022/04/25 09:14:05;;;;;;;7.23;6.47;;;14.10;93.10;;;;;;5087473;28;20484;-77
2022/04/25 09:16:51;;;;;;;10.03;7.17;;;14.20;92.70;;;;;;5087645;28;20539;-77
2022/04/25 09:19:38;;;;;;;8.50;7.20;;;14.30;93.70;;;;;;5089738;28;20527;-77
2022/04/25 09:22:32;;;;;;;12.50;7.70;;;14.30;93.10;;;;;;5089616;28;20450;-77
2022/04/25 09:25:19;;;;;;;9.10;7.50;;;14.20;88.80;;;;;;5089118;28;20969;-76
2022/04/25 09:28:09;;;;;;;8.10;7.17;;;14.20;88.90;;;;;;5086345;28;20915;-76
2022/04/25 09:31:00;;;;;;;12.83;8.33;;;14.30;91.60;;;;;;5087672;28;20652;-78
2022/04/25 09:33:46;;;;;;;11.17;8.80;;;14.30;92.00;;;;;;5103978;28;20416;-78
2022/04/25 09:36:47;;;;;;;11.30;8.87;;;14.30;91.40;;;;;;5103594;28;20905;-78
2022/04/25 09:39:33;;;;;;;10.43;8.40;;;14.30;91.10;;;;;;5106712;28;20392;-78
2022/04/25 09:42:28;;;;;;;12.77;7.90;;;14.30;92.20;;;;;;5104663;28;20428;-79
2022/04/25 09:45:15;;;;;;;9.53;8.63;;;14.30;92.50;;;;;;5104660;28;20444;-79
2022/04/25 09:48:03;;;;;;;9.37;8.37;;;14.50;91.80;;;;;;5101989;28;20425;-79
2022/04/25 09:50:59;;;;;;;12.67;8.30;;;14.60;91.90;;;;;;5106504;28;20442;-79
2022/04/25 09:53:47;;;;;;;10.60;8.10;;;14.70;91.30;;;;;;5107480;28;20410;-78
2022/04/25 09:56:35;;;;;;;9.47;7.90;;;14.80;91.10;;;;;;5097316;28;20543;-79
2022/04/25 09:59:22;;;;;;;9.07;7.60;;;14.80;90.70;;;;;;5092306;28;20416;-78
2022/04/25 10:02:09;;;;;;;8.60;7.67;;;14.80;90.40;;;;;;5097774;28;20856;-78
2022/04/25 10:04:57;;;;;;;10.70;8.03;;;14.90;90.90;;;;;;5100780;28;20456;-78
2022/04/25 10:07:44;;;;;;;9.40;8.00;;;14.90;88.70;;;;;;5094763;28;20459;-78
2022/04/25 10:10:29;;;;;;;8.63;7.73;;;14.90;88.70;;;;;;5099775;28;20532;-78
2022/04/25 10:13:16;;;;;;;10.13;8.77;;;14.80;87.30;;;;;;5099471;28;20416;-78
2022/04/25 10:16:02;;;;;;;11.07;7.80;;;14.80;86.80;;;;;;5097074;28;20481;-78
2022/04/25 10:18:49;;;;;;;10.07;8.60;;;14.80;85.50;;;;;;5097809;28;20426;-78
2022/04/25 10:21:37;;;;;;;9.03;8.13;;;14.60;83.60;;;;;;5106432;28;20419;-77
2022/04/25 10:24:24;;;;;;;9.57;8.03;;;14.60;84.00;;;;;;5104024;28;20479;-78
2022/04/25 10:27:14;;;;;;;8.93;7.43;;;14.60;86.20;;;;;;5097979;28;20420;-78
2022/04/25 10:30:08;;;;;;;11.00;8.53;;;14.80;87.20;;;;;;5105250;28;20460;-78
2022/04/25 10:33:16;;;;;;;11.00;7.67;;;15.10;85.20;;;;;;5106299;28;20461;-79
2022/04/25 10:36:02;;;;;;;8.87;7.30;;;15.30;80.10;;;;;;5103417;28;20545;-79
2022/04/25 10:38:52;;;;;;;7.53;6.80;;;15.30;76.30;;;;;;5107342;28;20421;-78
2022/04/25 10:45:00;;;;;;;9.47;7.33;;;15.40;75.10;;;;;;5102700;28;20491;-78
2022/04/25 10:47:57;;;;;;;9.20;6.70;;;15.60;76.40;;;;;;5103863;28;20441;-79
2022/04/25 10:51:12;;;;;;;7.70;6.23;;;15.60;72.70;;;;;;5106110;28;20481;-78
2022/04/25 10:54:00;;;;;;;10.10;8.90;;;15.80;74.90;;;;;;5105488;28;20436;-78
2022/04/25 10:57:13;;;;;;;9.93;8.93;;;16.00;75.80;;;;;;5100041;28;20462;-78
2022/04/25 10:59:59;;;;;;;9.90;7.40;;;16.20;74.60;;;;;;5091679;28;20440;-78
2022/04/25 11:03:03;;;;;;;9.00;8.07;;;16.40;73.20;;;;;;5094886;28;20412;-77
2022/04/25 11:05:50;;;;;;;11.07;8.00;;;16.50;68.60;;;;;;5090237;28;20977;-78
2022/04/25 11:08:49;;;;;;;9.60;8.50;;;16.60;68.40;;;;;;5098083;28;20420;-78
2022/04/25 11:11:48;;;;;;;8.47;7.67;;;16.60;67.60;;;;;;5094295;28;20851;-78
2022/04/25 11:14:34;;;;;;;10.47;7.80;;;16.80;69.60;;;;;;5095676;28;20463;-77
2022/04/25 11:17:20;;;;;;;10.63;8.63;;;16.90;69.10;;;;;;5090421;28;20499;-79
2022/04/25 11:20:06;;;;;;;8.57;7.77;;;17.10;63.60;;;;;;5092819;28;20465;-78
2022/04/25 11:22:53;;;;;;;8.10;6.90;;;17.10;63.50;;;;;;5093175;28;20457;-78
2022/04/25 11:25:42;;;;;;;11.27;8.80;;;17.00;62.80;;;;;;5097705;28;21141;-78
2022/04/25 11:28:30;;;;;;;8.40;7.03;;;17.10;63.30;;;;;;5101570;28;20851;-78
2022/04/25 11:31:23;;;;;;;9.73;8.70;;;17.30;66.80;;;;;;5098997;28;20496;-78
2022/04/25 11:34:11;;;;;;;10.87;9.30;;;17.60;65.50;;;;;;5095215;28;20412;-77
2022/04/25 11:36:57;;;;;;;11.37;9.80;;;17.80;61.80;;;;;;5095391;28;20511;-78
2022/04/25 11:39:57;;;;;;;12.43;11.13;;;17.90;61.30;;;;;;5096607;28;20428;-78
2022/04/25 11:42:43;;;;;;;12.03;10.83;;;17.70;61.50;;;;;;5092831;28;20411;-78
2022/04/25 11:45:30;;;;;;;12.87;9.83;;;17.60;64.30;;;;;;5090770;28;20464;-77
2022/04/25 11:48:16;;;;;;;13.27;9.77;;;17.50;64.80;;;;;;5087816;28;20412;-77
2022/04/25 11:51:03;;;;;;;13.50;9.30;;;17.50;64.40;;;;;;5089435;28;20456;-78
2022/04/25 11:53:49;;;;;;;11.57;10.37;;;17.70;65.20;;;;;;5091015;28;20424;-78
2022/04/25 11:56:36;;;;;;;12.07;10.87;;;17.70;60.00;;;;;;5085574;28;20412;-77
2022/04/25 11:59:21;;;;;;;11.77;10.07;;;17.60;61.30;;;;;;5086133;28;20500;-77
2022/04/25 12:02:08;;;;;;;11.37;10.17;;;17.60;66.50;;;;;;5082436;28;20493;-78
2022/04/25 12:04:54;;;;;;;10.07;8.63;;;17.70;61.90;;;;;;5093851;28;20482;-78
2022/04/25 12:16:54;;;;;;;8.00;7.17;;;17.10;57.20;;;;;;5087318;28;21157;-78
2022/04/25 12:20:02;;;;;;;8.83;7.90;;;17.10;59.00;;;;;;5086659;28;20458;-78
2022/04/25 12:22:53;;;;;;;8.00;6.90;;;16.90;59.30;;;;;;5084647;28;20523;-77
2022/04/25 12:25:43;;;;;;;11.03;8.03;;;16.80;60.00;;;;;;5081858;28;21020;-78
2022/04/25 12:28:29;;;;;;;8.40;6.40;;;16.80;57.50;;;;;;5088825;28;20478;-78
2022/04/25 12:31:16;;;;;;;8.70;6.50;;;17.10;62.60;;;;;;5081038;28;20471;-78
2022/04/25 12:34:06;;;;;;;7.60;6.80;;;17.50;60.10;;;;;;5073256;28;20465;-78
2022/04/25 12:36:58;;;;;;;8.33;7.37;;;17.70;59.30;;;;;;5093270;28;20891;-77
2022/04/25 12:40:01;;;;;;;7.90;7.07;;;17.90;57.10;;;;;;5094655;28;20512;-78
2022/04/25 12:42:50;;;;;;;9.20;8.07;;;18.20;55.70;;;;;;5093570;28;20429;-78
2022/04/25 12:45:50;;;;;;;7.33;6.60;;;18.30;53.00;;;;;;5082576;28;20449;-78
2022/04/25 12:49:06;;;;;;;10.30;7.40;;;18.40;55.60;;;;;;5090925;28;20446;-78
2022/04/25 12:52:00;;;;;;;6.87;5.93;;;18.60;52.90;;;;;;5041529;28;20520;-78
2022/04/25 12:54:49;;;;;;;6.90;6.20;;;18.40;51.80;;;;;;5086688;28;20483;-77
2022/04/25 12:57:35;;;;;;;8.60;7.00;;;18.50;53.90;;;;;;5086578;28;20409;-78
2022/04/25 13:00:20;;;;;;;8.93;7.20;;;18.70;49.80;;;;;;5084649;28;20440;-78
2022/04/25 13:03:06;;;;;;;7.53;6.63;;;18.30;51.30;;;;;;5081428;28;21183;-77
2022/04/25 13:05:52;;;;;;;7.87;6.70;;;18.20;49.30;;;;;;5080239;28;20456;-77
2022/04/25 13:08:39;;;;;;;9.90;7.90;;;17.80;49.30;;;;;;5081271;28;20442;-77
2022/04/25 13:11:26;;;;;;;6.80;6.10;;;17.70;50.90;;;;;;5085620;28;20913;-78
2022/04/25 13:14:12;;;;;;;7.03;6.33;;;17.50;54.10;;;;;;5082954;28;20420;-77
2022/04/25 13:16:57;;;;;;;7.00;6.30;;;17.40;54.00;;;;;;5088314;28;20476;-78
2022/04/25 13:19:43;;;;;;;7.50;6.70;;;17.20;58.30;;;;;;5081411;28;20424;-78
2022/04/25 13:22:29;;;;;;;8.93;6.77;;;17.00;63.50;;;;;;5085128;28;20929;-78
2022/04/25 13:25:18;;;;;;;9.23;7.60;;;16.90;65.50;;;;;;5078277;28;20540;-78
2022/04/25 13:28:05;;;;;;;8.03;7.00;;;16.60;66.20;;;;;;5081889;28;20803;-77
2022/04/25 13:30:53;;;;;;;7.37;6.67;;;16.40;68.40;;;;;;5080506;28;20437;-78
2022/04/25 13:33:38;;;;;;;7.17;5.80;;;16.30;69.40;;;;;;5090525;28;20434;-77
2022/04/25 13:36:24;;;;;;;9.77;7.20;;;16.40;69.40;;;;;;5089229;28;20417;-77
2022/04/25 13:39:10;;;;;;;6.17;5.57;;;16.40;70.50;;;;;;5085692;28;20421;-77
2022/04/25 13:41:57;;;;;;;7.70;6.67;;;16.50;69.10;;;;;;5092748;28;20450;-77
2022/04/25 13:44:44;;;;;;;9.30;7.20;;;16.50;69.00;;;;;;5085713;28;20451;-77
2022/04/25 13:47:30;;;;;;;8.17;6.97;;;16.50;68.20;;;;;;5082796;28;20434;-75
2022/04/25 13:50:16;;;;;;;7.30;6.30;;;16.60;67.30;;;;;;5089462;28;21078;-78
2022/04/25 13:53:02;;;;;;;7.40;6.10;;;16.80;66.90;;;;;;5089595;28;20404;-78
2022/04/25 13:55:48;;;;;;;10.07;6.80;;;17.00;67.60;;;;;;5083046;28;20406;-78
2022/04/25 13:58:36;;;;;;;7.30;6.50;;;17.40;65.40;;;;;;5087044;28;20445;-78
2022/04/25 14:01:21;;;;;;;8.30;6.37;;;17.70;64.90;;;;;;5088630;28;20462;-78
2022/04/25 14:04:07;;;;;;;7.00;5.80;;;17.90;63.80;;;;;;5089735;28;20540;-78
2022/04/25 14:06:53;;;;;;;5.83;5.23;;;18.10;63.40;;;;;;5091640;28;20477;-78
2022/04/25 14:09:39;;;;;;;7.17;5.60;;;18.50;62.70;;;;;;5086882;28;20543;-76
2022/04/25 14:12:24;;;;;;;5.47;4.97;;;18.70;61.00;;;;;;5088785;28;20449;-76
2022/04/25 14:15:12;;;;;;;5.20;4.07;;;18.60;58.20;;;;;;5086039;28;20437;-78
2022/04/25 14:17:58;;;;;;;5.30;4.07;;;18.30;59.40;;;;;;5089626;28;20434;-78
2022/04/25 14:20:43;;;;;;;5.90;4.97;;;18.10;60.20;;;;;;5085048;28;20419;-78
2022/04/25 14:23:29;;;;;;;5.20;4.70;;;17.80;59.70;;;;;;5082232;28;20446;-78
2022/04/25 14:26:17;;;;;;;4.80;4.30;;;17.80;60.40;;;;;;5088356;28;20457;-78
2022/04/25 14:29:03;;;;;;;5.90;4.93;;;18.10;61.20;;;;;;5090141;28;20453;-78
2022/04/25 14:31:50;;;;;;;6.97;4.77;;;18.60;57.40;;;;;;5086815;28;20436;-78
2022/04/25 14:34:36;;;;;;;6.10;5.20;;;18.80;53.80;;;;;;5084164;28;20416;-78
2022/04/25 14:37:21;;;;;;;5.20;4.40;;;19.00;55.10;;;;;;5088640;28;20416;-77
2022/04/25 14:40:09;;;;;;;5.20;4.70;;;19.00;53.00;;;;;;5090241;28;20433;-78
2022/04/25 14:42:55;;;;;;;5.00;4.50;;;18.70;53.20;;;;;;5086467;28;20466;-78
2022/04/25 14:45:40;;;;;;;6.30;5.47;;;18.40;54.00;;;;;;5085187;28;20435;-78
2022/04/25 14:48:27;;;;;;;5.53;5.00;;;18.30;54.40;;;;;;5088616;28;20437;-78
2022/04/25 14:54:24;;;;;;;6.87;5.80;;;18.70;51.90;;;;;;5084347;28;20499;-78
2022/04/25 14:57:10;;;;;;;5.30;4.30;;;18.70;52.00;;;;;;5089025;28;20430;-78
2022/04/25 14:59:56;;;;;;;6.80;5.30;;;18.70;53.30;;;;;;5083328;28;20566;-77
2022/04/25 15:02:41;;;;;;;6.37;5.73;;;18.80;54.20;;;;;;5088272;28;20433;-78
2022/04/25 15:05:28;;;;;;;6.13;5.30;;;18.90;53.70;;;;;;5088156;28;20497;-77